sensor_id;sensor_type;location;lat;lon;timestamp;temperature;humidity
21612;DHT22;47005;52.292;13.452;2023-07-20T00:00:50;19.00;96.90
21612;DHT22;47005;52.292;13.452;2023-07-20T00:03:20;19.00;97.10
21612;DHT22;47005;52.292;13.452;2023-07-20T00:05:50;18.90;97.40
21612;DHT22;47005;52.292;13.452;2023-07-20T00:08:17;18.90;97.70
21612;DHT22;47005;52.292;13.452;2023-07-20T00:10:43;18.90;97.40
21612;DHT22;47005;52.292;13.452;2023-07-20T00:13:10;18.90;97.10
21612;DHT22;47005;52.292;13.452;2023-07-20T00:15:36;18.90;97.60
21612;DHT22;47005;52.292;13.452;2023-07-20T00:18:04;18.90;97.30
21612;DHT22;47005;52.292;13.452;2023-07-20T00:20:29;18.90;97.50
21612;DHT22;47005;52.292;13.452;2023-07-20T00:22:55;18.80;97.70
21612;DHT22;47005;52.292;13.452;2023-07-20T00:25:23;18.80;97.40
21612;DHT22;47005;52.292;13.452;2023-07-20T00:27:49;18.80;97.50
21612;DHT22;47005;52.292;13.452;2023-07-20T00:30:15;18.80;97.50
21612;DHT22;47005;52.292;13.452;2023-07-20T00:32:42;18.90;97.90
21612;DHT22;47005;52.292;13.452;2023-07-20T00:35:08;18.80;97.80
21612;DHT22;47005;52.292;13.452;2023-07-20T00:37:34;18.80;97.90
21612;DHT22;47005;52.292;13.452;2023-07-20T00:39:59;18.80;97.40
21612;DHT22;47005;52.292;13.452;2023-07-20T00:42:25;18.80;97.70
21612;DHT22;47005;52.292;13.452;2023-07-20T00:44:51;18.70;97.70
21612;DHT22;47005;52.292;13.452;2023-07-20T00:47:16;18.70;97.50
21612;DHT22;47005;52.292;13.452;2023-07-20T00:49:42;18.70;97.40
21612;DHT22;47005;52.292;13.452;2023-07-20T00:52:10;18.70;97.90
21612;DHT22;47005;52.292;13.452;2023-07-20T00:54:37;18.70;97.60
21612;DHT22;47005;52.292;13.452;2023-07-20T00:57:04;18.70;98.20
21612;DHT22;47005;52.292;13.452;2023-07-20T00:59:30;18.70;98.30
21612;DHT22;47005;52.292;13.452;2023-07-20T01:01:56;18.70;98.40
21612;DHT22;47005;52.292;13.452;2023-07-20T01:04:21;18.70;98.10
21612;DHT22;47005;52.292;13.452;2023-07-20T01:06:55;18.70;98.00
21612;DHT22;47005;52.292;13.452;2023-07-20T01:09:39;18.60;97.80
21612;DHT22;47005;52.292;13.452;2023-07-20T01:15:28;18.60;98.20
21612;DHT22;47005;52.292;13.452;2023-07-20T01:17:54;18.60;98.00
21612;DHT22;47005;52.292;13.452;2023-07-20T01:20:21;18.60;98.50
21612;DHT22;47005;52.292;13.452;2023-07-20T01:31:27;18.50;98.80
21612;DHT22;47005;52.292;13.452;2023-07-20T01:33:58;18.50;99.20
21612;DHT22;47005;52.292;13.452;2023-07-20T01:36:28;18.50;99.20
21612;DHT22;47005;52.292;13.452;2023-07-20T01:38:54;18.50;99.40
21612;DHT22;47005;52.292;13.452;2023-07-20T01:41:21;18.50;99.40
21612;DHT22;47005;52.292;13.452;2023-07-20T01:43:47;18.50;99.50
21612;DHT22;47005;52.292;13.452;2023-07-20T01:46:13;18.50;99.30
21612;DHT22;47005;52.292;13.452;2023-07-20T01:48:39;18.50;99.30
21612;DHT22;47005;52.292;13.452;2023-07-20T01:51:04;18.40;98.90
21612;DHT22;47005;52.292;13.452;2023-07-20T01:53:30;18.40;99.30
21612;DHT22;47005;52.292;13.452;2023-07-20T01:55:57;18.40;99.80
21612;DHT22;47005;52.292;13.452;2023-07-20T01:58:23;18.40;99.90
21612;DHT22;47005;52.292;13.452;2023-07-20T02:00:48;18.40;99.90
21612;DHT22;47005;52.292;13.452;2023-07-20T02:03:14;18.40;99.90
21612;DHT22;47005;52.292;13.452;2023-07-20T02:05:42;18.40;99.90
21612;DHT22;47005;52.292;13.452;2023-07-20T02:08:08;18.40;99.70
21612;DHT22;47005;52.292;13.452;2023-07-20T02:10:37;18.40;99.90
21612;DHT22;47005;52.292;13.452;2023-07-20T02:13:03;18.40;99.90
21612;DHT22;47005;52.292;13.452;2023-07-20T02:15:28;18.40;99.90
21612;DHT22;47005;52.292;13.452;2023-07-20T02:17:54;18.40;99.40
21612;DHT22;47005;52.292;13.452;2023-07-20T02:20:21;18.40;99.10
21612;DHT22;47005;52.292;13.452;2023-07-20T02:22:47;18.40;99.00
21612;DHT22;47005;52.292;13.452;2023-07-20T02:25:12;18.40;99.00
21612;DHT22;47005;52.292;13.452;2023-07-20T02:27:38;18.30;99.00
21612;DHT22;47005;52.292;13.452;2023-07-20T02:30:04;18.30;99.20
21612;DHT22;47005;52.292;13.452;2023-07-20T02:32:31;18.30;98.90
21612;DHT22;47005;52.292;13.452;2023-07-20T02:35:00;18.30;99.30
21612;DHT22;47005;52.292;13.452;2023-07-20T02:37:26;18.30;98.80
21612;DHT22;47005;52.292;13.452;2023-07-20T02:39:51;18.30;98.70
21612;DHT22;47005;52.292;13.452;2023-07-20T02:42:17;18.30;98.90
21612;DHT22;47005;52.292;13.452;2023-07-20T02:44:43;18.30;99.30
21612;DHT22;47005;52.292;13.452;2023-07-20T02:47:08;18.20;99.50
21612;DHT22;47005;52.292;13.452;2023-07-20T02:49:34;18.20;99.10
21612;DHT22;47005;52.292;13.452;2023-07-20T02:52:00;18.20;99.10
21612;DHT22;47005;52.292;13.452;2023-07-20T02:54:26;18.20;99.80
21612;DHT22;47005;52.292;13.452;2023-07-20T02:56:52;18.10;99.90
21612;DHT22;47005;52.292;13.452;2023-07-20T02:59:18;18.10;99.90
21612;DHT22;47005;52.292;13.452;2023-07-20T03:01:44;18.10;99.60
21612;DHT22;47005;52.292;13.452;2023-07-20T03:04:10;18.10;99.90
21612;DHT22;47005;52.292;13.452;2023-07-20T03:06:36;18.10;99.90
21612;DHT22;47005;52.292;13.452;2023-07-20T03:09:02;18.10;99.90
21612;DHT22;47005;52.292;13.452;2023-07-20T03:11:32;18.10;99.90
21612;DHT22;47005;52.292;13.452;2023-07-20T03:13:59;18.10;99.90
21612;DHT22;47005;52.292;13.452;2023-07-20T03:16:25;18.00;99.90
21612;DHT22;47005;52.292;13.452;2023-07-20T03:18:50;18.00;99.90
21612;DHT22;47005;52.292;13.452;2023-07-20T03:21:16;18.00;99.90
21612;DHT22;47005;52.292;13.452;2023-07-20T03:23:42;18.00;99.90
21612;DHT22;47005;52.292;13.452;2023-07-20T03:26:08;18.00;99.90
21612;DHT22;47005;52.292;13.452;2023-07-20T03:28:37;18.00;99.90
21612;DHT22;47005;52.292;13.452;2023-07-20T03:31:04;18.00;99.90
21612;DHT22;47005;52.292;13.452;2023-07-20T03:33:31;18.00;99.90
21612;DHT22;47005;52.292;13.452;2023-07-20T03:35:57;18.00;99.90
21612;DHT22;47005;52.292;13.452;2023-07-20T03:38:24;18.00;99.90
21612;DHT22;47005;52.292;13.452;2023-07-20T03:43:20;18.00;99.90
21612;DHT22;47005;52.292;13.452;2023-07-20T03:45:46;17.90;99.90
21612;DHT22;47005;52.292;13.452;2023-07-20T03:48:14;18.00;99.90
21612;DHT22;47005;52.292;13.452;2023-07-20T03:50:40;17.90;99.90
21612;DHT22;47005;52.292;13.452;2023-07-20T03:53:06;17.90;99.90
21612;DHT22;47005;52.292;13.452;2023-07-20T03:55:32;18.00;99.90
21612;DHT22;47005;52.292;13.452;2023-07-20T03:57:58;17.90;99.90
21612;DHT22;47005;52.292;13.452;2023-07-20T04:00:24;17.90;99.90
21612;DHT22;47005;52.292;13.452;2023-07-20T04:02:50;17.90;99.90
21612;DHT22;47005;52.292;13.452;2023-07-20T04:05:16;17.90;99.90
21612;DHT22;47005;52.292;13.452;2023-07-20T04:07:42;17.90;99.90
21612;DHT22;47005;52.292;13.452;2023-07-20T04:10:08;17.90;99.90
21612;DHT22;47005;52.292;13.452;2023-07-20T04:12:34;17.90;99.90
21612;DHT22;47005;52.292;13.452;2023-07-20T04:15:00;17.90;99.90
21612;DHT22;47005;52.292;13.452;2023-07-20T04:17:26;17.90;99.90
21612;DHT22;47005;52.292;13.452;2023-07-20T04:19:51;17.90;99.90
21612;DHT22;47005;52.292;13.452;2023-07-20T04:22:17;17.90;99.90
21612;DHT22;47005;52.292;13.452;2023-07-20T04:24:42;17.90;99.90
21612;DHT22;47005;52.292;13.452;2023-07-20T04:27:08;17.80;99.90
21612;DHT22;47005;52.292;13.452;2023-07-20T04:29:34;17.90;99.90
21612;DHT22;47005;52.292;13.452;2023-07-20T04:32:00;17.80;99.90
21612;DHT22;47005;52.292;13.452;2023-07-20T04:34:25;17.90;99.90
21612;DHT22;47005;52.292;13.452;2023-07-20T04:36:51;17.80;99.90
21612;DHT22;47005;52.292;13.452;2023-07-20T04:39:17;17.90;99.90
21612;DHT22;47005;52.292;13.452;2023-07-20T04:41:42;17.90;99.90
21612;DHT22;47005;52.292;13.452;2023-07-20T04:44:08;17.90;99.90
21612;DHT22;47005;52.292;13.452;2023-07-20T04:46:34;17.90;99.90
21612;DHT22;47005;52.292;13.452;2023-07-20T04:49:00;17.90;99.90
21612;DHT22;47005;52.292;13.452;2023-07-20T04:51:27;17.90;99.90
21612;DHT22;47005;52.292;13.452;2023-07-20T04:53:52;17.90;99.90
21612;DHT22;47005;52.292;13.452;2023-07-20T04:56:18;17.90;99.90
21612;DHT22;47005;52.292;13.452;2023-07-20T04:58:44;17.90;99.90
21612;DHT22;47005;52.292;13.452;2023-07-20T05:01:10;17.90;99.90
21612;DHT22;47005;52.292;13.452;2023-07-20T05:03:36;18.00;99.90
21612;DHT22;47005;52.292;13.452;2023-07-20T05:06:02;17.90;99.90
21612;DHT22;47005;52.292;13.452;2023-07-20T05:08:28;17.90;99.90
21612;DHT22;47005;52.292;13.452;2023-07-20T05:10:53;17.90;99.90
21612;DHT22;47005;52.292;13.452;2023-07-20T05:13:19;17.90;99.90
21612;DHT22;47005;52.292;13.452;2023-07-20T05:15:45;17.90;99.90
21612;DHT22;47005;52.292;13.452;2023-07-20T05:18:10;17.90;99.90
21612;DHT22;47005;52.292;13.452;2023-07-20T05:20:36;17.90;99.90
21612;DHT22;47005;52.292;13.452;2023-07-20T05:23:02;17.90;99.90
21612;DHT22;47005;52.292;13.452;2023-07-20T05:25:28;17.90;99.90
21612;DHT22;47005;52.292;13.452;2023-07-20T05:27:54;17.90;99.90
21612;DHT22;47005;52.292;13.452;2023-07-20T05:30:23;17.90;99.90
21612;DHT22;47005;52.292;13.452;2023-07-20T05:32:49;17.90;99.90
21612;DHT22;47005;52.292;13.452;2023-07-20T05:35:18;17.90;99.90
21612;DHT22;47005;52.292;13.452;2023-07-20T05:37:45;17.90;99.90
21612;DHT22;47005;52.292;13.452;2023-07-20T05:40:11;17.90;99.90
21612;DHT22;47005;52.292;13.452;2023-07-20T05:42:38;17.90;99.90
21612;DHT22;47005;52.292;13.452;2023-07-20T05:45:04;17.90;99.90
21612;DHT22;47005;52.292;13.452;2023-07-20T05:47:30;17.90;99.90
21612;DHT22;47005;52.292;13.452;2023-07-20T05:49:57;17.90;99.90
21612;DHT22;47005;52.292;13.452;2023-07-20T05:52:23;17.90;99.90
21612;DHT22;47005;52.292;13.452;2023-07-20T05:54:49;18.00;99.90
21612;DHT22;47005;52.292;13.452;2023-07-20T05:57:14;18.00;99.90
21612;DHT22;47005;52.292;13.452;2023-07-20T05:59:40;18.00;99.90
21612;DHT22;47005;52.292;13.452;2023-07-20T06:02:10;18.00;99.90
21612;DHT22;47005;52.292;13.452;2023-07-20T06:04:35;17.90;99.90
21612;DHT22;47005;52.292;13.452;2023-07-20T06:07:02;18.00;99.90
21612;DHT22;47005;52.292;13.452;2023-07-20T06:09:27;18.00;99.90
21612;DHT22;47005;52.292;13.452;2023-07-20T06:11:55;18.00;99.90
21612;DHT22;47005;52.292;13.452;2023-07-20T06:14:22;18.00;99.90
21612;DHT22;47005;52.292;13.452;2023-07-20T06:16:47;18.00;99.90
21612;DHT22;47005;52.292;13.452;2023-07-20T06:19:13;17.90;99.90
21612;DHT22;47005;52.292;13.452;2023-07-20T06:21:39;18.00;99.90
21612;DHT22;47005;52.292;13.452;2023-07-20T06:24:05;18.00;99.90
21612;DHT22;47005;52.292;13.452;2023-07-20T06:26:31;18.00;99.90
21612;DHT22;47005;52.292;13.452;2023-07-20T06:29:03;18.00;99.90
21612;DHT22;47005;52.292;13.452;2023-07-20T06:31:29;18.00;99.90
21612;DHT22;47005;52.292;13.452;2023-07-20T06:33:54;18.00;99.90
21612;DHT22;47005;52.292;13.452;2023-07-20T06:36:20;18.00;99.90
21612;DHT22;47005;52.292;13.452;2023-07-20T06:38:46;18.00;99.90
21612;DHT22;47005;52.292;13.452;2023-07-20T06:41:11;18.00;99.90
21612;DHT22;47005;52.292;13.452;2023-07-20T06:43:37;18.10;99.90
21612;DHT22;47005;52.292;13.452;2023-07-20T06:46:03;18.10;99.90
21612;DHT22;47005;52.292;13.452;2023-07-20T06:48:29;18.10;99.90
21612;DHT22;47005;52.292;13.452;2023-07-20T06:50:55;18.10;99.90
21612;DHT22;47005;52.292;13.452;2023-07-20T06:53:20;18.10;99.90
21612;DHT22;47005;52.292;13.452;2023-07-20T06:55:46;18.10;99.90
21612;DHT22;47005;52.292;13.452;2023-07-20T06:58:12;18.10;99.90
21612;DHT22;47005;52.292;13.452;2023-07-20T07:00:37;18.10;99.90
21612;DHT22;47005;52.292;13.452;2023-07-20T07:03:03;18.10;99.90
21612;DHT22;47005;52.292;13.452;2023-07-20T07:05:29;18.10;99.90
21612;DHT22;47005;52.292;13.452;2023-07-20T07:07:54;18.10;99.90
21612;DHT22;47005;52.292;13.452;2023-07-20T07:10:20;18.10;99.90
21612;DHT22;47005;52.292;13.452;2023-07-20T07:12:46;18.10;99.90
21612;DHT22;47005;52.292;13.452;2023-07-20T07:15:11;18.10;99.90
21612;DHT22;47005;52.292;13.452;2023-07-20T07:17:37;18.00;99.90
21612;DHT22;47005;52.292;13.452;2023-07-20T07:20:04;18.00;99.90
21612;DHT22;47005;52.292;13.452;2023-07-20T07:22:30;18.00;99.90
21612;DHT22;47005;52.292;13.452;2023-07-20T07:24:56;18.00;99.90
21612;DHT22;47005;52.292;13.452;2023-07-20T07:27:21;18.00;99.90
21612;DHT22;47005;52.292;13.452;2023-07-20T07:29:47;18.00;99.90
21612;DHT22;47005;52.292;13.452;2023-07-20T07:32:14;18.00;99.90
21612;DHT22;47005;52.292;13.452;2023-07-20T07:34:40;18.10;99.90
21612;DHT22;47005;52.292;13.452;2023-07-20T07:37:06;18.10;99.90
21612;DHT22;47005;52.292;13.452;2023-07-20T07:39:32;18.20;99.90
21612;DHT22;47005;52.292;13.452;2023-07-20T07:41:57;18.20;99.90
21612;DHT22;47005;52.292;13.452;2023-07-20T07:44:23;18.20;99.90
21612;DHT22;47005;52.292;13.452;2023-07-20T07:46:49;18.30;99.90
21612;DHT22;47005;52.292;13.452;2023-07-20T07:49:15;18.40;99.90
21612;DHT22;47005;52.292;13.452;2023-07-20T07:51:41;18.40;99.90
21612;DHT22;47005;52.292;13.452;2023-07-20T07:54:07;18.40;99.90
21612;DHT22;47005;52.292;13.452;2023-07-20T07:56:33;18.50;99.90
21612;DHT22;47005;52.292;13.452;2023-07-20T07:58:58;18.50;99.90
21612;DHT22;47005;52.292;13.452;2023-07-20T08:01:24;18.50;99.90
21612;DHT22;47005;52.292;13.452;2023-07-20T08:03:50;18.60;99.90
21612;DHT22;47005;52.292;13.452;2023-07-20T08:06:16;18.60;99.90
21612;DHT22;47005;52.292;13.452;2023-07-20T08:08:42;18.60;99.60
21612;DHT22;47005;52.292;13.452;2023-07-20T08:11:08;18.60;99.90
21612;DHT22;47005;52.292;13.452;2023-07-20T08:13:34;18.70;99.40
21612;DHT22;47005;52.292;13.452;2023-07-20T08:16:01;18.60;99.30
21612;DHT22;47005;52.292;13.452;2023-07-20T08:18:29;18.70;99.40
21612;DHT22;47005;52.292;13.452;2023-07-20T08:20:55;18.70;99.20
21612;DHT22;47005;52.292;13.452;2023-07-20T08:23:20;18.70;99.30
21612;DHT22;47005;52.292;13.452;2023-07-20T08:25:46;18.70;98.40
21612;DHT22;47005;52.292;13.452;2023-07-20T08:28:16;18.70;98.70
21612;DHT22;47005;52.292;13.452;2023-07-20T08:30:42;18.70;98.80
21612;DHT22;47005;52.292;13.452;2023-07-20T08:33:18;18.80;98.80
21612;DHT22;47005;52.292;13.452;2023-07-20T08:35:45;18.80;98.60
21612;DHT22;47005;52.292;13.452;2023-07-20T08:38:12;18.80;98.10
21612;DHT22;47005;52.292;13.452;2023-07-20T08:40:45;18.80;98.10
21612;DHT22;47005;52.292;13.452;2023-07-20T08:43:12;18.80;97.40
21612;DHT22;47005;52.292;13.452;2023-07-20T08:45:40;18.80;97.50
21612;DHT22;47005;52.292;13.452;2023-07-20T08:48:07;18.90;97.40
21612;DHT22;47005;52.292;13.452;2023-07-20T08:50:34;18.90;97.20
21612;DHT22;47005;52.292;13.452;2023-07-20T08:53:00;18.90;96.40
21612;DHT22;47005;52.292;13.452;2023-07-20T08:55:27;18.90;97.00
21612;DHT22;47005;52.292;13.452;2023-07-20T08:57:55;19.00;96.80
21612;DHT22;47005;52.292;13.452;2023-07-20T09:00:21;19.00;95.80
21612;DHT22;47005;52.292;13.452;2023-07-20T09:02:52;19.00;96.30
21612;DHT22;47005;52.292;13.452;2023-07-20T09:05:19;19.00;96.20
21612;DHT22;47005;52.292;13.452;2023-07-20T09:07:45;19.00;96.50
21612;DHT22;47005;52.292;13.452;2023-07-20T09:10:11;19.00;96.20
21612;DHT22;47005;52.292;13.452;2023-07-20T09:12:38;19.10;96.10
21612;DHT22;47005;52.292;13.452;2023-07-20T09:15:06;19.10;95.70
21612;DHT22;47005;52.292;13.452;2023-07-20T09:17:32;19.10;95.70
21612;DHT22;47005;52.292;13.452;2023-07-20T09:19:58;19.10;95.80
21612;DHT22;47005;52.292;13.452;2023-07-20T09:22:31;19.20;95.20
21612;DHT22;47005;52.292;13.452;2023-07-20T09:24:58;19.20;95.20
21612;DHT22;47005;52.292;13.452;2023-07-20T09:27:41;19.20;95.50
21612;DHT22;47005;52.292;13.452;2023-07-20T09:30:07;19.30;95.00
21612;DHT22;47005;52.292;13.452;2023-07-20T09:32:43;19.30;95.00
21612;DHT22;47005;52.292;13.452;2023-07-20T09:35:16;19.30;94.80
21612;DHT22;47005;52.292;13.452;2023-07-20T09:38:01;19.40;94.40
21612;DHT22;47005;52.292;13.452;2023-07-20T09:40:28;19.40;94.20
21612;DHT22;47005;52.292;13.452;2023-07-20T09:42:54;19.40;94.00
21612;DHT22;47005;52.292;13.452;2023-07-20T09:45:35;19.40;93.80
21612;DHT22;47005;52.292;13.452;2023-07-20T09:48:09;19.40;94.00
21612;DHT22;47005;52.292;13.452;2023-07-20T09:50:49;19.40;93.90
21612;DHT22;47005;52.292;13.452;2023-07-20T09:53:19;19.40;93.30
21612;DHT22;47005;52.292;13.452;2023-07-20T09:55:49;19.40;93.90
21612;DHT22;47005;52.292;13.452;2023-07-20T09:58:15;19.50;93.00
21612;DHT22;47005;52.292;13.452;2023-07-20T10:00:42;19.50;93.00
21612;DHT22;47005;52.292;13.452;2023-07-20T10:03:16;19.50;92.70
21612;DHT22;47005;52.292;13.452;2023-07-20T10:05:45;19.50;92.80
21612;DHT22;47005;52.292;13.452;2023-07-20T10:08:12;19.50;92.10
21612;DHT22;47005;52.292;13.452;2023-07-20T10:10:41;19.60;92.00
21612;DHT22;47005;52.292;13.452;2023-07-20T10:13:17;19.60;92.10
21612;DHT22;47005;52.292;13.452;2023-07-20T10:15:49;19.60;92.60
21612;DHT22;47005;52.292;13.452;2023-07-20T10:21:19;19.70;92.20
21612;DHT22;47005;52.292;13.452;2023-07-20T10:23:48;19.70;91.30
21612;DHT22;47005;52.292;13.452;2023-07-20T10:26:14;19.70;91.60
21612;DHT22;47005;52.292;13.452;2023-07-20T10:28:40;19.80;91.30
21612;DHT22;47005;52.292;13.452;2023-07-20T10:31:11;19.80;91.60
21612;DHT22;47005;52.292;13.452;2023-07-20T10:33:38;19.80;91.50
21612;DHT22;47005;52.292;13.452;2023-07-20T10:36:05;19.80;91.80
21612;DHT22;47005;52.292;13.452;2023-07-20T10:41:21;19.90;91.90
21612;DHT22;47005;52.292;13.452;2023-07-20T10:43:48;19.90;91.70
21612;DHT22;47005;52.292;13.452;2023-07-20T10:46:14;20.00;90.50
21612;DHT22;47005;52.292;13.452;2023-07-20T10:49:03;20.00;89.70
21612;DHT22;47005;52.292;13.452;2023-07-20T10:51:29;20.00;89.20
21612;DHT22;47005;52.292;13.452;2023-07-20T10:53:58;20.00;88.60
21612;DHT22;47005;52.292;13.452;2023-07-20T10:56:27;20.00;90.10
21612;DHT22;47005;52.292;13.452;2023-07-20T10:58:59;20.00;90.30
21612;DHT22;47005;52.292;13.452;2023-07-20T11:01:29;20.00;90.30
21612;DHT22;47005;52.292;13.452;2023-07-20T11:03:57;20.00;89.40
21612;DHT22;47005;52.292;13.452;2023-07-20T11:11:31;20.10;90.50
21612;DHT22;47005;52.292;13.452;2023-07-20T11:14:01;20.10;90.50
21612;DHT22;47005;52.292;13.452;2023-07-20T11:16:44;20.10;90.70
21612;DHT22;47005;52.292;13.452;2023-07-20T11:19:22;20.20;88.90
21612;DHT22;47005;52.292;13.452;2023-07-20T11:22:01;20.20;87.90
21612;DHT22;47005;52.292;13.452;2023-07-20T11:24:30;20.20;86.60
21612;DHT22;47005;52.292;13.452;2023-07-20T11:26:56;20.20;88.00
21612;DHT22;47005;52.292;13.452;2023-07-20T11:29:22;20.20;89.00
21612;DHT22;47005;52.292;13.452;2023-07-20T11:31:49;20.20;88.90
21612;DHT22;47005;52.292;13.452;2023-07-20T11:34:20;20.20;89.20
21612;DHT22;47005;52.292;13.452;2023-07-20T11:36:48;20.30;89.00
21612;DHT22;47005;52.292;13.452;2023-07-20T11:39:18;20.30;88.30
21612;DHT22;47005;52.292;13.452;2023-07-20T11:41:52;20.30;88.40
21612;DHT22;47005;52.292;13.452;2023-07-20T11:44:18;20.30;88.70
21612;DHT22;47005;52.292;13.452;2023-07-20T11:46:44;20.30;87.80
21612;DHT22;47005;52.292;13.452;2023-07-20T11:49:11;20.30;88.30
21612;DHT22;47005;52.292;13.452;2023-07-20T11:51:38;20.30;88.10
21612;DHT22;47005;52.292;13.452;2023-07-20T11:54:07;20.40;88.50
21612;DHT22;47005;52.292;13.452;2023-07-20T11:56:32;20.40;88.40
21612;DHT22;47005;52.292;13.452;2023-07-20T11:58:59;20.40;88.70
21612;DHT22;47005;52.292;13.452;2023-07-20T12:01:27;20.40;89.00
21612;DHT22;47005;52.292;13.452;2023-07-20T12:03:58;20.40;89.10
21612;DHT22;47005;52.292;13.452;2023-07-20T12:06:24;20.40;89.70
21612;DHT22;47005;52.292;13.452;2023-07-20T12:08:53;20.40;90.20
21612;DHT22;47005;52.292;13.452;2023-07-20T12:11:32;20.40;90.30
21612;DHT22;47005;52.292;13.452;2023-07-20T12:13:58;20.40;90.20
21612;DHT22;47005;52.292;13.452;2023-07-20T12:16:27;20.40;90.40
21612;DHT22;47005;52.292;13.452;2023-07-20T12:19:10;20.40;90.30
21612;DHT22;47005;52.292;13.452;2023-07-20T12:21:38;20.40;90.30
21612;DHT22;47005;52.292;13.452;2023-07-20T12:24:05;20.40;90.10
21612;DHT22;47005;52.292;13.452;2023-07-20T12:26:32;20.40;90.30
21612;DHT22;47005;52.292;13.452;2023-07-20T12:28:58;20.40;90.20
21612;DHT22;47005;52.292;13.452;2023-07-20T12:31:24;20.40;90.00
21612;DHT22;47005;52.292;13.452;2023-07-20T12:33:51;20.30;89.90
21612;DHT22;47005;52.292;13.452;2023-07-20T12:36:17;20.30;89.80
21612;DHT22;47005;52.292;13.452;2023-07-20T12:38:43;20.40;90.30
21612;DHT22;47005;52.292;13.452;2023-07-20T12:41:10;20.40;90.40
21612;DHT22;47005;52.292;13.452;2023-07-20T12:43:38;20.40;90.80
21612;DHT22;47005;52.292;13.452;2023-07-20T12:46:05;20.40;90.40
21612;DHT22;47005;52.292;13.452;2023-07-20T12:48:31;20.50;90.40
21612;DHT22;47005;52.292;13.452;2023-07-20T12:50:57;20.50;90.30
21612;DHT22;47005;52.292;13.452;2023-07-20T12:53:22;20.50;90.40
21612;DHT22;47005;52.292;13.452;2023-07-20T12:55:48;20.50;89.60
21612;DHT22;47005;52.292;13.452;2023-07-20T12:58:14;20.50;89.20
21612;DHT22;47005;52.292;13.452;2023-07-20T13:00:39;20.50;89.40
21612;DHT22;47005;52.292;13.452;2023-07-20T13:03:06;20.50;89.60
21612;DHT22;47005;52.292;13.452;2023-07-20T13:05:32;20.50;89.00
21612;DHT22;47005;52.292;13.452;2023-07-20T13:07:58;20.60;88.60
21612;DHT22;47005;52.292;13.452;2023-07-20T13:10:24;20.60;89.20
21612;DHT22;47005;52.292;13.452;2023-07-20T13:12:50;20.50;87.30
21612;DHT22;47005;52.292;13.452;2023-07-20T13:15:17;20.60;88.10
21612;DHT22;47005;52.292;13.452;2023-07-20T13:17:43;20.60;87.50
21612;DHT22;47005;52.292;13.452;2023-07-20T13:20:10;20.60;86.40
21612;DHT22;47005;52.292;13.452;2023-07-20T13:22:40;20.70;84.60
21612;DHT22;47005;52.292;13.452;2023-07-20T13:25:07;20.70;86.30
21612;DHT22;47005;52.292;13.452;2023-07-20T13:27:33;20.80;87.40
21612;DHT22;47005;52.292;13.452;2023-07-20T13:29:59;20.90;86.90
21612;DHT22;47005;52.292;13.452;2023-07-20T13:32:27;21.00;85.00
21612;DHT22;47005;52.292;13.452;2023-07-20T13:34:52;21.10;83.40
21612;DHT22;47005;52.292;13.452;2023-07-20T13:37:19;21.20;79.70
21612;DHT22;47005;52.292;13.452;2023-07-20T13:39:44;21.20;80.70
21612;DHT22;47005;52.292;13.452;2023-07-20T13:42:10;21.30;80.50
21612;DHT22;47005;52.292;13.452;2023-07-20T13:44:37;21.30;81.70
21612;DHT22;47005;52.292;13.452;2023-07-20T13:47:04;21.30;82.80
21612;DHT22;47005;52.292;13.452;2023-07-20T13:49:32;21.40;83.40
21612;DHT22;47005;52.292;13.452;2023-07-20T13:51:58;21.40;82.70
21612;DHT22;47005;52.292;13.452;2023-07-20T13:54:24;21.40;83.20
21612;DHT22;47005;52.292;13.452;2023-07-20T13:56:50;21.40;83.00
21612;DHT22;47005;52.292;13.452;2023-07-20T13:59:17;21.50;83.80
21612;DHT22;47005;52.292;13.452;2023-07-20T14:01:43;21.50;83.10
21612;DHT22;47005;52.292;13.452;2023-07-20T14:04:08;21.50;83.20
21612;DHT22;47005;52.292;13.452;2023-07-20T14:06:35;21.50;83.60
21612;DHT22;47005;52.292;13.452;2023-07-20T14:09:01;21.50;83.70
21612;DHT22;47005;52.292;13.452;2023-07-20T14:11:28;21.40;81.50
21612;DHT22;47005;52.292;13.452;2023-07-20T14:13:54;21.40;81.90
21612;DHT22;47005;52.292;13.452;2023-07-20T14:16:20;21.40;82.80
21612;DHT22;47005;52.292;13.452;2023-07-20T14:18:46;21.40;82.30
21612;DHT22;47005;52.292;13.452;2023-07-20T14:21:14;21.40;81.40
21612;DHT22;47005;52.292;13.452;2023-07-20T14:23:40;21.40;81.20
21612;DHT22;47005;52.292;13.452;2023-07-20T14:26:05;21.30;81.10
21612;DHT22;47005;52.292;13.452;2023-07-20T14:28:32;21.30;81.70
21612;DHT22;47005;52.292;13.452;2023-07-20T14:30:58;21.30;79.40
21612;DHT22;47005;52.292;13.452;2023-07-20T14:33:24;21.40;77.50
21612;DHT22;47005;52.292;13.452;2023-07-20T14:35:50;21.30;78.70
21612;DHT22;47005;52.292;13.452;2023-07-20T14:38:15;21.30;78.90
21612;DHT22;47005;52.292;13.452;2023-07-20T14:40:41;21.30;76.10
21612;DHT22;47005;52.292;13.452;2023-07-20T14:43:07;21.20;76.90
21612;DHT22;47005;52.292;13.452;2023-07-20T14:45:32;21.20;75.20
21612;DHT22;47005;52.292;13.452;2023-07-20T14:47:58;21.20;74.50
21612;DHT22;47005;52.292;13.452;2023-07-20T14:50:24;21.20;75.80
21612;DHT22;47005;52.292;13.452;2023-07-20T14:52:50;21.20;72.60
21612;DHT22;47005;52.292;13.452;2023-07-20T14:55:16;21.20;76.40
21612;DHT22;47005;52.292;13.452;2023-07-20T14:57:42;21.30;74.90
21612;DHT22;47005;52.292;13.452;2023-07-20T15:00:09;21.30;76.10
21612;DHT22;47005;52.292;13.452;2023-07-20T15:02:37;21.30;75.10
21612;DHT22;47005;52.292;13.452;2023-07-20T15:05:06;21.30;74.70
21612;DHT22;47005;52.292;13.452;2023-07-20T15:07:32;21.30;75.30
21612;DHT22;47005;52.292;13.452;2023-07-20T15:09:57;21.40;75.10
21612;DHT22;47005;52.292;13.452;2023-07-20T15:12:23;21.40;69.70
21612;DHT22;47005;52.292;13.452;2023-07-20T15:15:07;21.40;72.30
21612;DHT22;47005;52.292;13.452;2023-07-20T15:17:34;21.40;72.00
21612;DHT22;47005;52.292;13.452;2023-07-20T15:20:01;21.40;71.20
21612;DHT22;47005;52.292;13.452;2023-07-20T15:22:30;21.40;71.00
21612;DHT22;47005;52.292;13.452;2023-07-20T15:24:56;21.40;69.00
21612;DHT22;47005;52.292;13.452;2023-07-20T15:27:22;21.40;70.30
21612;DHT22;47005;52.292;13.452;2023-07-20T15:29:48;21.40;67.50
21612;DHT22;47005;52.292;13.452;2023-07-20T15:32:14;21.40;68.30
21612;DHT22;47005;52.292;13.452;2023-07-20T15:34:42;21.40;68.10
21612;DHT22;47005;52.292;13.452;2023-07-20T15:37:08;21.40;68.50
21612;DHT22;47005;52.292;13.452;2023-07-20T15:39:35;21.40;70.20